Time;durP1;ratioP1;P1;durP2;ratioP2;P2;SDS_P1;SDS_P2;PMS_P1;PMS_P2;Temp;Humidity;BMP_temperature;BMP_pressure;BME280_temperature;BME280_humidity;BME280_pressure;Samples;Min_cycle;Max_cycle;Signal;HPM_P1;HPM_P2
2022/09/22 00:06:30;;;;;;;7.17;3.10;;;;;;;;;;10483475;28;20037;-75
2022/09/22 00:11:36;;;;;;;7.13;2.97;;;;;;;;;;10483138;28;20081;-75
2022/09/22 00:16:43;;;;;;;6.40;2.65;;;;;;;;;;10466914;28;20039;-75
2022/09/22 00:21:58;;;;;;;7.07;3.10;;;;;;;;;;10484428;28;20068;-75
2022/09/22 00:27:05;;;;;;;7.32;2.67;;;;;;;;;;10478200;28;20040;-75
2022/09/22 00:32:09;;;;;;;6.32;2.72;;;;;;;;;;10467484;28;20085;-75
2022/09/22 00:37:14;;;;;;;7.55;2.83;;;;;;;;;;10483815;28;20057;-75
2022/09/22 00:42:22;;;;;;;6.30;2.72;;;;;;;;;;10478846;28;20048;-75
2022/09/22 00:47:34;;;;;;;5.35;2.80;;;;;;;;;;10484215;28;20071;-76
2022/09/22 00:52:43;;;;;;;7.05;2.95;;;;;;;;;;10485955;28;20049;-76
2022/09/22 00:57:48;;;;;;;6.90;2.40;;;;;;;;;;10483544;28;20048;-76
2022/09/22 01:02:56;;;;;;;5.28;2.63;;;;;;;;;;10487997;28;20200;-75
2022/09/22 01:08:04;;;;;;;6.10;3.00;;;;;;;;;;10485720;28;20444;-77
2022/09/22 01:13:18;;;;;;;5.70;2.55;;;;;;;;;;10485698;28;20383;-77
2022/09/22 01:18:26;;;;;;;4.82;2.35;;;;;;;;;;10527125;28;20037;-77
2022/09/22 01:23:44;;;;;;;5.10;2.53;;;;;;;;;;10504594;28;20036;-77
2022/09/22 01:29:00;;;;;;;6.25;2.42;;;;;;;;;;10498822;28;20032;-77
2022/09/22 01:34:12;;;;;;;6.88;3.05;;;;;;;;;;10503601;28;20409;-76
2022/09/22 01:39:19;;;;;;;7.22;2.63;;;;;;;;;;10506330;28;20048;-77
2022/09/22 01:44:28;;;;;;;4.85;2.90;;;;;;;;;;10520031;28;20047;-77
2022/09/22 01:49:41;;;;;;;7.03;2.90;;;;;;;;;;10526807;28;20105;-77
2022/09/22 01:54:49;;;;;;;5.50;2.55;;;;;;;;;;10510681;28;20048;-76
2022/09/22 01:59:59;;;;;;;5.88;2.75;;;;;;;;;;10525601;28;20043;-76
2022/09/22 02:05:12;;;;;;;6.05;2.88;;;;;;;;;;10524537;28;20139;-77
2022/09/22 02:10:17;;;;;;;8.68;3.63;;;;;;;;;;10509423;28;20079;-76
2022/09/22 02:20:50;;;;;;;5.80;2.83;;;;;;;;;;10523656;28;20056;-76
2022/09/22 02:25:54;;;;;;;6.85;2.80;;;;;;;;;;10489537;28;20045;-76
2022/09/22 02:31:05;;;;;;;8.38;3.10;;;;;;;;;;10484946;28;20038;-76
2022/09/22 02:36:34;;;;;;;6.63;3.17;;;;;;;;;;10505931;28;20047;-75
2022/09/22 02:41:46;;;;;;;9.57;3.60;;;;;;;;;;10524519;28;20452;-75
2022/09/22 02:52:12;;;;;;;9.57;3.80;;;;;;;;;;10506138;28;20106;-76
2022/09/22 02:57:17;;;;;;;9.80;4.05;;;;;;;;;;10514907;28;20032;-76
2022/09/22 03:02:22;;;;;;;8.43;4.28;;;;;;;;;;10525528;28;20058;-76
2022/09/22 03:07:28;;;;;;;9.35;3.95;;;;;;;;;;10518946;28;20078;-76
2022/09/22 03:12:33;;;;;;;8.45;4.13;;;;;;;;;;10509339;28;20059;-75
2022/09/22 03:17:37;;;;;;;10.27;4.32;;;;;;;;;;10511275;28;20040;-76
2022/09/22 03:22:44;;;;;;;10.32;4.40;;;;;;;;;;10510479;28;20036;-75
2022/09/22 03:27:49;;;;;;;8.98;3.50;;;;;;;;;;10528244;28;20044;-76
2022/09/22 03:32:54;;;;;;;11.17;4.67;;;;;;;;;;10512268;28;20120;-76
2022/09/22 03:37:59;;;;;;;8.30;4.13;;;;;;;;;;10522560;28;20299;-76
2022/09/22 03:43:10;;;;;;;9.48;4.40;;;;;;;;;;10498608;28;20427;-76
2022/09/22 03:48:24;;;;;;;8.32;3.92;;;;;;;;;;10501239;28;20239;-76
2022/09/22 03:53:30;;;;;;;7.03;3.33;;;;;;;;;;10511600;28;20079;-76
2022/09/22 03:58:35;;;;;;;5.95;2.63;;;;;;;;;;10508818;28;20051;-76
2022/09/22 04:03:41;;;;;;;7.60;3.83;;;;;;;;;;10490197;28;20394;-77
2022/09/22 04:08:46;;;;;;;7.50;3.35;;;;;;;;;;10528359;28;20504;-77
2022/09/22 04:13:51;;;;;;;9.07;4.03;;;;;;;;;;10531145;28;20044;-76
2022/09/22 04:18:55;;;;;;;9.65;3.97;;;;;;;;;;10514826;28;20063;-77
2022/09/22 04:23:58;;;;;;;;;;;;;;;;;;10529195;28;20127;-75
2022/09/22 04:29:05;;;;;;;6.38;3.00;;;;;;;;;;10527881;28;19965;-77
2022/09/22 04:34:15;;;;;;;9.80;3.72;;;;;;;;;;10527483;28;20059;-76
2022/09/22 04:39:20;;;;;;;8.82;4.00;;;;;;;;;;10508349;28;20128;-76
2022/09/22 04:44:30;;;;;;;7.85;3.20;;;;;;;;;;10534605;28;20404;-77
2022/09/22 04:49:37;;;;;;;9.13;4.35;;;;;;;;;;10489051;28;20036;-77
2022/09/22 04:54:42;;;;;;;9.18;4.75;;;;;;;;;;10533702;28;20048;-76
2022/09/22 04:59:49;;;;;;;9.63;4.70;;;;;;;;;;10491186;28;20464;-76
2022/09/22 05:04:54;;;;;;;12.27;5.13;;;;;;;;;;10506682;28;20409;-76
2022/09/22 05:10:04;;;;;;;12.95;4.75;;;;;;;;;;10530202;28;20130;-77
2022/09/22 05:15:16;;;;;;;12.68;4.35;;;;;;;;;;10516940;28;20401;-77
2022/09/22 05:20:22;;;;;;;9.68;5.00;;;;;;;;;;10526445;28;20036;-77
2022/09/22 05:25:29;;;;;;;12.57;5.30;;;;;;;;;;10522626;28;20037;-77
2022/09/22 05:30:39;;;;;;;8.43;4.25;;;;;;;;;;10528287;28;20028;-76
2022/09/22 05:35:45;;;;;;;12.07;4.47;;;;;;;;;;10523008;28;20044;-78
2022/09/22 05:40:50;;;;;;;11.32;5.45;;;;;;;;;;10496859;28;20058;-76
2022/09/22 05:45:59;;;;;;;23.58;9.05;;;;;;;;;;10504663;28;20044;-77
2022/09/22 05:51:05;;;;;;;9.23;3.80;;;;;;;;;;10526978;28;20319;-78
2022/09/22 05:56:10;;;;;;;9.90;4.03;;;;;;;;;;10520157;28;20466;-77
2022/09/22 06:01:19;;;;;;;9.07;2.20;;;;;;;;;;10503249;28;20062;-77
2022/09/22 06:06:33;;;;;;;5.90;2.35;;;;;;;;;;10504669;28;20354;-77
2022/09/22 06:11:40;;;;;;;7.88;3.78;;;;;;;;;;10518091;28;20037;-77
2022/09/22 06:16:50;;;;;;;1.75;1.05;;;;;;;;;;10506400;28;20032;-77
2022/09/22 06:21:57;;;;;;;6.70;3.28;;;;;;;;;;10527170;28;20036;-77
2022/09/22 06:27:09;;;;;;;7.38;3.60;;;;;;;;;;10501711;28;20500;-78
2022/09/22 06:32:15;;;;;;;1.67;1.45;;;;;;;;;;10503246;28;20043;-78
2022/09/22 06:37:19;;;;;;;3.72;1.80;;;;;;;;;;10523209;28;20048;-77
2022/09/22 06:42:25;;;;;;;8.18;3.63;;;;;;;;;;10510714;28;20042;-78
2022/09/22 06:47:42;;;;;;;5.93;3.38;;;;;;;;;;10511903;28;20055;-78
2022/09/22 06:52:58;;;;;;;5.15;3.03;;;;;;;;;;10496362;28;20136;-77
2022/09/22 06:58:04;;;;;;;6.57;3.45;;;;;;;;;;10500709;28;20124;-77
2022/09/22 07:03:16;;;;;;;5.00;3.00;;;;;;;;;;10500443;28;20044;-78
2022/09/22 07:08:20;;;;;;;5.68;2.50;;;;;;;;;;10512038;28;20059;-79
2022/09/22 07:13:28;;;;;;;4.50;2.80;;;;;;;;;;10499736;28;20441;-79
2022/09/22 07:18:34;;;;;;;4.55;3.15;;;;;;;;;;10498663;28;20043;-77
2022/09/22 07:23:39;;;;;;;6.25;3.28;;;;;;;;;;10503646;28;20044;-77
2022/09/22 07:28:45;;;;;;;4.82;3.05;;;;;;;;;;10500452;28;20394;-77
2022/09/22 07:33:57;;;;;;;4.97;2.67;;;;;;;;;;10514123;28;20076;-77
2022/09/22 07:39:07;;;;;;;4.20;2.80;;;;;;;;;;10519345;28;20415;-77
2022/09/22 07:49:36;;;;;;;4.97;2.70;;;;;;;;;;10519813;28;20496;-77
2022/09/22 07:54:46;;;;;;;3.90;2.55;;;;;;;;;;10498797;28;20044;-76
2022/09/22 07:59:56;;;;;;;4.68;2.63;;;;;;;;;;10491513;28;20146;-77
2022/09/22 08:05:03;;;;;;;3.65;2.75;;;;;;;;;;10501435;28;20039;-77
2022/09/22 08:10:12;;;;;;;3.67;2.50;;;;;;;;;;10515813;28;20047;-77
2022/09/22 08:15:21;;;;;;;5.78;2.60;;;;;;;;;;10506374;28;20233;-77
2022/09/22 08:20:36;;;;;;;5.53;2.67;;;;;;;;;;10501356;28;20397;-77
2022/09/22 08:25:45;;;;;;;3.08;2.50;;;;;;;;;;10505227;28;20051;-77
2022/09/22 08:30:51;;;;;;;2.55;2.33;;;;;;;;;;10498979;28;20549;-78
2022/09/22 08:36:02;;;;;;;3.30;2.35;;;;;;;;;;10493644;28;20136;-78
2022/09/22 08:41:16;;;;;;;2.67;2.20;;;;;;;;;;10498898;28;20036;-78
2022/09/22 08:46:27;;;;;;;3.65;2.55;;;;;;;;;;10504397;28;20401;-78
2022/09/22 08:51:54;;;;;;;4.70;2.20;;;;;;;;;;10508967;28;20047;-78
2022/09/22 08:57:14;;;;;;;4.72;2.40;;;;;;;;;;10557737;28;20062;-77
2022/09/22 09:02:32;;;;;;;2.55;2.35;;;;;;;;;;10558543;28;20123;-78
2022/09/22 09:07:46;;;;;;;4.90;2.50;;;;;;;;;;10539557;28;20047;-78
2022/09/22 09:13:01;;;;;;;7.55;2.40;;;;;;;;;;10559823;28;20039;-78
2022/09/22 09:18:13;;;;;;;2.88;2.58;;;;;;;;;;10544830;28;20047;-78
2022/09/22 09:23:23;;;;;;;6.00;2.45;;;;;;;;;;10553390;28;20055;-77
2022/09/22 09:28:52;;;;;;;3.05;2.30;;;;;;;;;;10536836;28;20058;-78
2022/09/22 09:34:00;;;;;;;6.60;2.38;;;;;;;;;;10557757;27;20039;-76
2022/09/22 09:39:16;;;;;;;2.42;1.90;;;;;;;;;;10561015;28;20035;-78
2022/09/22 09:44:29;;;;;;;2.92;2.55;;;;;;;;;;10561947;28;20083;-78
2022/09/22 09:49:34;;;;;;;2.50;2.30;;;;;;;;;;10543261;28;20120;-78
2022/09/22 09:54:46;;;;;;;2.25;2.10;;;;;;;;;;10543902;28;20046;-78
2022/09/22 10:05:31;;;;;;;2.63;1.70;;;;;;;;;;10550866;28;20059;-78
2022/09/22 10:10:45;;;;;;;2.05;1.95;;;;;;;;;;10538119;28;20387;-78
2022/09/22 10:16:02;;;;;;;2.40;1.98;;;;;;;;;;10560582;27;20054;-79
2022/09/22 10:21:15;;;;;;;2.55;2.00;;;;;;;;;;10558607;28;20103;-78
2022/09/22 10:26:26;;;;;;;2.58;1.90;;;;;;;;;;10546019;28;20058;-78
2022/09/22 10:31:31;;;;;;;3.20;2.38;;;;;;;;;;10542443;28;20103;-79
2022/09/22 10:36:44;;;;;;;2.40;2.13;;;;;;;;;;10554973;28;20039;-78
2022/09/22 10:41:49;;;;;;;2.05;1.90;;;;;;;;;;10541339;28;20303;-78
2022/09/22 10:47:08;;;;;;;1.98;1.70;;;;;;;;;;10557775;28;20047;-78
2022/09/22 10:52:18;;;;;;;2.80;2.10;;;;;;;;;;10554325;28;20036;-78
2022/09/22 10:57:36;;;;;;;3.25;2.30;;;;;;;;;;10555994;28;20060;-79
2022/09/22 11:03:00;;;;;;;1.75;1.65;;;;;;;;;;10532818;28;20680;-79
2022/09/22 11:13:37;;;;;;;1.95;1.80;;;;;;;;;;10560163;28;20071;-79
2022/09/22 11:18:51;;;;;;;1.83;1.70;;;;;;;;;;10557509;27;20062;-78
2022/09/22 11:24:04;;;;;;;2.15;1.95;;;;;;;;;;10538395;28;20088;-78
2022/09/22 11:29:27;;;;;;;2.60;1.70;;;;;;;;;;10538159;28;20039;-77
2022/09/22 11:34:51;;;;;;;4.60;1.70;;;;;;;;;;10559066;28;20390;-77
2022/09/22 11:40:05;;;;;;;2.53;1.90;;;;;;;;;;10541057;28;20055;-77
2022/09/22 11:45:17;;;;;;;1.90;1.80;;;;;;;;;;10541657;28;20158;-77
2022/09/22 11:50:45;;;;;;;2.00;1.80;;;;;;;;;;10522997;28;20036;-77
2022/09/22 11:55:55;;;;;;;1.92;1.50;;;;;;;;;;10556719;28;20052;-77
2022/09/22 12:01:06;;;;;;;2.65;1.70;;;;;;;;;;10555518;28;20140;-78
2022/09/22 12:06:18;;;;;;;3.15;2.10;;;;;;;;;;10536769;28;20047;-78
2022/09/22 12:11:27;;;;;;;1.67;1.55;;;;;;;;;;10542565;28;20460;-78
2022/09/22 12:16:40;;;;;;;1.80;1.70;;;;;;;;;;10556828;28;20158;-77
2022/09/22 12:21:48;;;;;;;4.15;1.80;;;;;;;;;;10533368;28;20054;-79
2022/09/22 12:26:52;;;;;;;2.25;1.70;;;;;;;;;;10524919;28;20040;-77
2022/09/22 12:31:59;;;;;;;2.67;1.75;;;;;;;;;;10552478;28;20055;-77
2022/09/22 12:37:10;;;;;;;2.47;1.80;;;;;;;;;;10539257;28;20052;-76
2022/09/22 12:42:23;;;;;;;1.85;1.70;;;;;;;;;;10559157;27;20177;-77
2022/09/22 12:47:33;;;;;;;1.95;1.73;;;;;;;;;;10548652;28;20043;-77
2022/09/22 12:52:59;;;;;;;2.95;2.00;;;;;;;;;;10540943;28;20044;-77
2022/09/22 12:58:24;;;;;;;2.75;1.80;;;;;;;;;;10561194;28;20055;-77
2022/09/22 13:03:29;;;;;;;;;;;;;;;;;;10541183;28;20059;-77
2022/09/22 13:08:49;;;;;;;2.00;1.80;;;;;;;;;;10556599;28;20164;-77
2022/09/22 13:13:57;;;;;;;1.83;1.73;;;;;;;;;;10534570;28;20117;-77
2022/09/22 13:19:01;;;;;;;2.47;1.85;;;;;;;;;;10538053;28;20051;-77
2022/09/22 13:24:07;;;;;;;1.70;1.60;;;;;;;;;;10543375;28;20054;-75
2022/09/22 13:29:13;;;;;;;1.70;1.40;;;;;;;;;;10545113;28;20070;-77
2022/09/22 13:34:23;;;;;;;4.28;1.90;;;;;;;;;;10540823;28;20108;-76
2022/09/22 13:39:33;;;;;;;1.70;1.60;;;;;;;;;;10562048;28;20075;-77
2022/09/22 13:44:40;;;;;;;3.67;1.90;;;;;;;;;;10541516;27;20039;-77
2022/09/22 13:50:00;;;;;;;3.45;2.20;;;;;;;;;;10560235;28;20047;-76
2022/09/22 13:55:08;;;;;;;3.22;1.60;;;;;;;;;;10559387;28;20050;-76
2022/09/22 14:00:26;;;;;;;2.75;1.60;;;;;;;;;;10526835;28;20143;-76
2022/09/22 14:05:35;;;;;;;2.13;1.60;;;;;;;;;;10560805;28;20036;-77
2022/09/22 14:10:43;;;;;;;3.47;2.10;;;;;;;;;;10533350;28;20043;-77
2022/09/22 14:15:48;;;;;;;5.95;1.60;;;;;;;;;;10537658;28;20047;-77
2022/09/22 14:20:54;;;;;;;3.67;1.70;;;;;;;;;;10537480;28;20047;-76
2022/09/22 14:26:00;;;;;;;1.98;1.50;;;;;;;;;;10553558;28;20065;-77
2022/09/22 14:31:12;;;;;;;2.70;1.52;;;;;;;;;;10557450;28;20052;-77
2022/09/22 14:36:21;;;;;;;5.53;1.85;;;;;;;;;;10553175;28;20071;-77
2022/09/22 14:41:28;;;;;;;3.30;1.70;;;;;;;;;;10538370;28;20073;-77
2022/09/22 14:46:39;;;;;;;2.67;1.60;;;;;;;;;;10561260;28;20735;-76
2022/09/22 14:51:45;;;;;;;2.22;1.60;;;;;;;;;;10548166;28;20036;-77
2022/09/22 14:56:49;;;;;;;2.10;1.40;;;;;;;;;;10556061;28;20051;-77
2022/09/22 15:07:24;;;;;;;2.53;1.55;;;;;;;;;;10561086;28;20049;-78
2022/09/22 15:12:34;;;;;;;2.30;1.65;;;;;;;;;;10557065;28;20043;-76
2022/09/22 15:23:12;;;;;;;3.50;1.80;;;;;;;;;;10552654;28;20505;-76
2022/09/22 15:28:22;;;;;;;3.13;2.00;;;;;;;;;;10526484;28;20047;-75
2022/09/22 15:33:33;;;;;;;1.50;1.27;;;;;;;;;;10564703;28;20040;-75
2022/09/22 15:38:43;;;;;;;2.03;1.60;;;;;;;;;;10560860;28;20510;-75
2022/09/22 15:43:50;;;;;;;1.42;1.10;;;;;;;;;;10586040;27;20560;-76
2022/09/22 15:49:02;;;;;;;1.67;1.38;;;;;;;;;;10553917;28;20118;-75
2022/09/22 15:54:16;;;;;;;3.58;1.30;;;;;;;;;;10551693;28;20044;-77
2022/09/22 15:59:26;;;;;;;2.50;1.30;;;;;;;;;;10544142;28;20096;-76
2022/09/22 16:09:51;;;;;;;4.70;2.63;;;;;;;;;;10567825;28;20047;-76
2022/09/22 16:14:57;;;;;;;17.80;9.07;;;;;;;;;;10551981;28;20511;-77
2022/09/22 16:20:05;;;;;;;2.60;1.88;;;;;;;;;;10567090;28;20135;-77
2022/09/22 16:25:10;;;;;;;3.45;2.50;;;;;;;;;;10571094;28;20044;-78
2022/09/22 16:30:16;;;;;;;5.30;2.33;;;;;;;;;;10559657;28;20047;-77
2022/09/22 16:35:30;;;;;;;1.92;1.30;;;;;;;;;;10558840;28;20039;-77
2022/09/22 16:40:33;;;;;;;2.55;1.70;;;;;;;;;;10535986;28;20169;-77
2022/09/22 16:51:08;;;;;;;1.70;1.48;;;;;;;;;;10548211;28;20040;-77
2022/09/22 16:56:13;;;;;;;2.20;1.42;;;;;;;;;;10573262;27;20108;-77
2022/09/22 17:01:17;;;;;;;2.67;2.05;;;;;;;;;;10547307;28;20043;-77
2022/09/22 17:06:27;;;;;;;4.57;2.08;;;;;;;;;;10560822;28;20123;-76
2022/09/22 17:11:35;;;;;;;11.02;4.45;;;;;;;;;;10568076;28;20043;-77
2022/09/22 17:16:55;;;;;;;3.80;2.00;;;;;;;;;;10549628;28;20036;-77
2022/09/22 17:22:00;;;;;;;4.75;2.20;;;;;;;;;;10546867;28;20050;-77
2022/09/22 17:27:07;;;;;;;3.13;2.03;;;;;;;;;;10568203;27;20036;-76
2022/09/22 17:32:16;;;;;;;3.30;1.92;;;;;;;;;;10565815;28;20404;-76
2022/09/22 17:37:26;;;;;;;5.00;2.20;;;;;;;;;;10575885;27;20539;-77
2022/09/22 17:42:34;;;;;;;8.77;3.13;;;;;;;;;;10563871;28;20038;-77
2022/09/22 17:58:30;;;;;;;6.38;3.33;;;;;;;;;;10566332;28;20050;-76
2022/09/22 18:03:34;;;;;;;4.60;2.75;;;;;;;;;;10546769;28;20039;-76
2022/09/22 18:08:43;;;;;;;6.82;2.65;;;;;;;;;;10560711;28;20127;-77
2022/09/22 18:13:55;;;;;;;4.57;2.28;;;;;;;;;;10557363;28;20051;-77
2022/09/22 18:19:21;;;;;;;5.15;2.22;;;;;;;;;;10560094;28;20690;-79
2022/09/22 18:24:27;;;;;;;7.28;2.38;;;;;;;;;;10558816;28;20518;-78
2022/09/22 18:29:30;;;;;;;5.57;2.33;;;;;;;;;;10562904;28;20668;-77
2022/09/22 18:34:36;;;;;;;6.32;2.70;;;;;;;;;;10561377;28;20146;-78
2022/09/22 18:39:44;;;;;;;6.82;3.10;;;;;;;;;;10547086;28;20044;-78
2022/09/22 18:44:50;;;;;;;15.65;8.52;;;;;;;;;;10544053;28;20048;-77
2022/09/22 18:49:58;;;;;;;18.17;7.85;;;;;;;;;;10544179;28;20051;-77
2022/09/22 18:55:08;;;;;;;7.43;3.10;;;;;;;;;;10549117;28;20039;-78
2022/09/22 19:00:19;;;;;;;7.75;3.92;;;;;;;;;;10539885;28;20488;-77
2022/09/22 19:05:35;;;;;;;6.35;3.63;;;;;;;;;;10575241;27;20089;-77
2022/09/22 19:10:44;;;;;;;5.80;2.90;;;;;;;;;;10557446;28;20496;-77
2022/09/22 19:15:51;;;;;;;8.13;3.17;;;;;;;;;;10544237;28;20055;-77
2022/09/22 19:21:02;;;;;;;6.32;3.58;;;;;;;;;;10557574;28;20133;-77
2022/09/22 19:26:09;;;;;;;6.55;3.20;;;;;;;;;;10545794;28;20477;-77
2022/09/22 19:31:18;;;;;;;8.10;3.70;;;;;;;;;;10563482;28;20170;-78
2022/09/22 19:36:22;;;;;;;11.65;4.95;;;;;;;;;;10572705;27;20111;-77
2022/09/22 19:41:40;;;;;;;5.85;3.00;;;;;;;;;;10570823;28;20051;-77
2022/09/22 19:46:47;;;;;;;6.18;3.25;;;;;;;;;;10573216;28;20500;-78
2022/09/22 19:51:53;;;;;;;8.65;3.35;;;;;;;;;;10573894;28;20039;-78
2022/09/22 19:57:00;;;;;;;6.70;3.35;;;;;;;;;;10555905;28;20036;-79
2022/09/22 20:02:10;;;;;;;8.18;3.10;;;;;;;;;;10557210;27;20063;-78
2022/09/22 20:07:26;;;;;;;6.28;3.25;;;;;;;;;;10587507;27;20460;-78
2022/09/22 20:12:33;;;;;;;6.50;3.15;;;;;;;;;;10552479;28;20036;-77
2022/09/22 20:17:42;;;;;;;5.57;2.78;;;;;;;;;;10554664;28;20541;-78
2022/09/22 20:22:49;;;;;;;6.10;2.78;;;;;;;;;;10549567;28;20134;-78
2022/09/22 20:27:55;;;;;;;6.60;3.13;;;;;;;;;;10564457;28;20050;-78
2022/09/22 20:33:00;;;;;;;4.32;2.25;;;;;;;;;;10560431;28;20439;-76
2022/09/22 20:38:05;;;;;;;6.15;2.65;;;;;;;;;;10554888;28;20644;-77
2022/09/22 20:43:13;;;;;;;6.60;2.95;;;;;;;;;;10551029;28;20553;-77
2022/09/22 20:48:19;;;;;;;6.07;3.15;;;;;;;;;;10538903;28;20547;-77
2022/09/22 20:53:24;;;;;;;6.90;2.95;;;;;;;;;;10548885;28;20512;-76
2022/09/22 20:58:31;;;;;;;8.95;3.55;;;;;;;;;;10541476;28;20070;-77
2022/09/22 21:03:36;;;;;;;7.28;3.50;;;;;;;;;;10563738;28;20425;-77
2022/09/22 21:14:04;;;;;;;5.55;2.92;;;;;;;;;;10545646;28;20047;-76
2022/09/22 21:19:11;;;;;;;7.35;3.67;;;;;;;;;;10546041;28;20500;-76
2022/09/22 21:24:16;;;;;;;6.55;3.38;;;;;;;;;;10564652;28;20404;-77
2022/09/22 21:29:28;;;;;;;5.53;3.28;;;;;;;;;;10543788;28;20414;-76
2022/09/22 21:34:33;;;;;;;6.63;3.60;;;;;;;;;;10561647;28;20046;-76
2022/09/22 21:39:36;;;;;;;7.77;3.57;;;;;;;;;;10567922;28;20074;-77
2022/09/22 21:44:42;;;;;;;7.78;4.00;;;;;;;;;;10550479;28;20060;-77
2022/09/22 21:49:48;;;;;;;9.15;3.67;;;;;;;;;;10568255;28;20046;-76
2022/09/22 21:54:52;;;;;;;5.90;3.22;;;;;;;;;;10552634;28;20051;-75
2022/09/22 21:59:58;;;;;;;6.97;3.78;;;;;;;;;;10539636;28;20035;-74
2022/09/22 22:05:03;;;;;;;7.80;3.47;;;;;;;;;;10558307;28;20055;-74
2022/09/22 22:10:10;;;;;;;10.43;4.20;;;;;;;;;;10559320;28;20404;-76
2022/09/22 22:15:22;;;;;;;7.47;3.97;;;;;;;;;;10561331;28;20533;-77
2022/09/22 22:20:29;;;;;;;7.18;3.58;;;;;;;;;;10565122;28;20564;-76
2022/09/22 22:25:39;;;;;;;9.23;4.32;;;;;;;;;;10569830;28;20065;-75
2022/09/22 22:30:46;;;;;;;4.25;2.35;;;;;;;;;;10568579;28;20154;-78
2022/09/22 22:35:57;;;;;;;8.80;4.00;;;;;;;;;;10561430;28;20093;-76
2022/09/22 22:41:04;;;;;;;7.00;3.50;;;;;;;;;;10549031;28;20035;-76
2022/09/22 22:46:11;;;;;;;9.57;4.25;;;;;;;;;;10577778;28;20051;-76
2022/09/22 22:51:17;;;;;;;7.88;4.13;;;;;;;;;;10564624;28;20449;-77
2022/09/22 22:56:21;;;;;;;6.68;3.90;;;;;;;;;;10567457;28;20043;-77
2022/09/22 23:01:29;;;;;;;4.43;2.92;;;;;;;;;;10531363;28;20066;-75
2022/09/22 23:06:42;;;;;;;8.80;3.90;;;;;;;;;;10565138;28;20031;-76
2022/09/22 23:11:49;;;;;;;8.77;4.25;;;;;;;;;;10553539;28;20040;-75
2022/09/22 23:16:54;;;;;;;5.90;3.28;;;;;;;;;;10565953;28;20114;-75
2022/09/22 23:21:59;;;;;;;7.07;3.75;;;;;;;;;;10571103;28;20035;-75
2022/09/22 23:27:03;;;;;;;8.57;4.07;;;;;;;;;;10550371;28;20063;-75
2022/09/22 23:32:09;;;;;;;5.05;3.28;;;;;;;;;;10552394;28;20085;-75
2022/09/22 23:37:14;;;;;;;8.38;3.85;;;;;;;;;;10587538;27;20130;-77
2022/09/22 23:42:19;;;;;;;10.90;4.10;;;;;;;;;;10569686;28;20119;-75
2022/09/22 23:47:27;;;;;;;7.72;4.60;;;;;;;;;;10554558;28;20512;-75
2022/09/22 23:52:39;;;;;;;5.95;3.65;;;;;;;;;;10565879;28;20047;-76
2022/09/22 23:57:43;;;;;;;7.00;3.63;;;;;;;;;;10553060;28;20124;-76
